createdAt,value
2022-11-28T00:01:19.856Z,5.80
2022-11-28T00:03:47.145Z,5.80
2022-11-28T00:06:14.799Z,5.90
2022-11-28T00:08:41.997Z,5.80
2022-11-28T00:11:12.645Z,5.90
2022-11-28T00:13:39.880Z,5.90
2022-11-28T00:16:09.270Z,6.00
2022-11-28T00:18:36.258Z,6.00
2022-11-28T00:21:05.988Z,6.00
2022-11-28T00:23:33.569Z,6.00
2022-11-28T00:26:06.225Z,6.00
2022-11-28T00:28:33.082Z,6.10
2022-11-28T00:30:59.977Z,6.10
2022-11-28T00:33:27.048Z,6.10
2022-11-28T00:36:01.593Z,6.20
2022-11-28T00:38:29.434Z,6.20
2022-11-28T00:41:04.768Z,6.20
2022-11-28T00:43:32.131Z,6.10
2022-11-28T00:45:59.346Z,6.10
2022-11-28T00:48:26.831Z,6.10
2022-11-28T00:50:54.745Z,6.20
2022-11-28T00:53:22.032Z,6.20
2022-11-28T00:55:48.875Z,6.30
2022-11-28T00:58:15.697Z,6.30
2022-11-28T01:00:42.565Z,6.30
2022-11-28T01:03:09.415Z,6.20
2022-11-28T01:05:41.706Z,6.20
2022-11-28T01:08:08.634Z,6.20
2022-11-28T01:10:38.862Z,6.30
2022-11-28T01:13:05.664Z,6.20
2022-11-28T01:15:32.491Z,6.20
2022-11-28T01:17:59.884Z,6.20
2022-11-28T01:20:26.682Z,6.20
2022-11-28T01:22:53.459Z,6.20
2022-11-28T01:25:20.440Z,6.20
2022-11-28T01:27:47.263Z,6.20
2022-11-28T01:30:14.246Z,6.20
2022-11-28T01:32:41.088Z,6.30
2022-11-28T01:35:08.301Z,6.30
2022-11-28T01:37:35.172Z,6.30
2022-11-28T01:40:02.059Z,6.30
2022-11-28T01:42:28.859Z,6.20
2022-11-28T01:44:55.612Z,6.20
2022-11-28T01:47:27.786Z,6.20
2022-11-28T01:49:55.621Z,6.20
2022-11-28T01:52:23.939Z,6.20
2022-11-28T01:54:57.860Z,6.20
2022-11-28T01:57:26.091Z,6.20
2022-11-28T01:59:58.803Z,6.10
2022-11-28T02:02:33.538Z,6.10
2022-11-28T02:05:01.043Z,6.10
2022-11-28T02:07:27.925Z,6.10
2022-11-28T02:09:55.402Z,6.20
2022-11-28T02:12:34.117Z,6.10
2022-11-28T02:15:22.272Z,6.10
2022-11-28T02:17:59.001Z,6.00
2022-11-28T02:20:43.876Z,6.00
2022-11-28T02:23:36.355Z,6.00
2022-11-28T02:26:28.033Z,6.00
2022-11-28T02:28:57.632Z,6.00
2022-11-28T02:31:55.370Z,6.10
2022-11-28T02:34:30.877Z,6.10
2022-11-28T02:37:09.010Z,6.10
2022-11-28T02:39:56.691Z,6.10
2022-11-28T02:42:34.587Z,6.10
2022-11-28T02:45:10.491Z,6.20
2022-11-28T02:47:50.330Z,6.10
2022-11-28T02:50:25.805Z,6.10
2022-11-28T02:53:08.980Z,6.20
2022-11-28T02:55:40.879Z,6.20
2022-11-28T02:58:09.229Z,6.10
2022-11-28T03:00:39.653Z,6.10
2022-11-28T03:03:48.141Z,6.10
2022-11-28T03:06:42.796Z,6.10
2022-11-28T03:09:47.266Z,6.10
2022-11-28T03:12:26.204Z,6.10
2022-11-28T03:15:00.558Z,6.10
2022-11-28T03:17:39.260Z,6.00
2022-11-28T03:20:20.169Z,6.10
2022-11-28T03:23:11.319Z,6.00
2022-11-28T03:25:54.966Z,6.00
2022-11-28T03:28:43.731Z,6.00
2022-11-28T03:31:18.762Z,6.00
2022-11-28T03:33:53.901Z,6.00
2022-11-28T03:36:31.253Z,5.90
2022-11-28T03:39:12.052Z,5.90
2022-11-28T03:41:57.207Z,5.90
2022-11-28T03:44:29.923Z,5.90
2022-11-28T03:47:00.877Z,5.80
2022-11-28T03:49:35.364Z,5.80
2022-11-28T03:52:05.747Z,5.70
2022-11-28T03:55:01.676Z,5.60
2022-11-28T03:57:57.646Z,5.50
2022-11-28T04:00:25.261Z,5.50
2022-11-28T04:03:19.259Z,5.50
2022-11-28T04:05:52.124Z,5.50
2022-11-28T04:08:30.919Z,5.50
2022-11-28T04:11:26.126Z,5.40
2022-11-28T04:14:03.522Z,5.40
2022-11-28T04:16:43.829Z,5.30
2022-11-28T04:19:32.800Z,5.30
2022-11-28T04:22:07.325Z,5.30
2022-11-28T04:24:40.712Z,5.20
2022-11-28T04:27:14.021Z,5.20
2022-11-28T04:29:46.543Z,5.30
2022-11-28T04:32:16.335Z,5.20
2022-11-28T04:34:47.027Z,5.20
2022-11-28T04:37:15.574Z,5.20
2022-11-28T04:39:48.121Z,5.20
2022-11-28T04:42:23.457Z,5.10
2022-11-28T04:44:57.611Z,5.10
2022-11-28T04:47:25.830Z,5.10
2022-11-28T04:49:54.128Z,5.10
2022-11-28T04:52:28.052Z,5.10
2022-11-28T04:55:26.944Z,5.10
2022-11-28T04:58:02.980Z,5.10
2022-11-28T05:00:30.053Z,5.10
2022-11-28T05:02:57.232Z,5.10
2022-11-28T05:05:26.302Z,5.20
2022-11-28T05:07:53.572Z,5.20
2022-11-28T05:10:20.762Z,5.20
2022-11-28T05:12:47.652Z,5.20
2022-11-28T05:15:19.119Z,5.20
2022-11-28T05:17:46.878Z,5.20
2022-11-28T05:20:14.424Z,5.20
2022-11-28T05:22:41.269Z,5.20
2022-11-28T05:25:08.416Z,5.20
2022-11-28T05:27:35.689Z,5.20
2022-11-28T05:30:02.983Z,5.20
2022-11-28T05:32:31.279Z,5.20
2022-11-28T05:34:58.586Z,5.10
2022-11-28T05:37:25.905Z,5.10
2022-11-28T05:39:52.722Z,5.10
2022-11-28T05:42:19.687Z,5.00
2022-11-28T05:44:47.915Z,5.10
2022-11-28T05:47:15.965Z,5.10
2022-11-28T05:49:43.305Z,5.00
2022-11-28T05:52:10.282Z,5.10
2022-11-28T05:54:37.112Z,5.10
2022-11-28T05:57:06.483Z,5.10
2022-11-28T05:59:33.492Z,5.10
2022-11-28T06:02:00.597Z,5.10
2022-11-28T06:04:27.523Z,5.20
2022-11-28T06:06:54.337Z,5.20
2022-11-28T06:09:25.681Z,5.10
2022-11-28T06:11:53.071Z,5.10
2022-11-28T06:14:19.892Z,5.10
2022-11-28T06:16:46.914Z,5.10
2022-11-28T06:19:13.991Z,5.20
2022-11-28T06:21:41.247Z,5.20
2022-11-28T06:24:09.618Z,5.10
2022-11-28T06:26:36.501Z,5.10
2022-11-28T06:29:03.524Z,5.10
2022-11-28T06:31:30.833Z,5.10
2022-11-28T06:33:58.809Z,5.10
2022-11-28T06:36:26.560Z,5.10
2022-11-28T06:38:54.387Z,5.10
2022-11-28T06:41:23.131Z,5.20
2022-11-28T06:43:50.508Z,5.30
2022-11-28T06:46:21.455Z,5.20
2022-11-28T06:48:50.724Z,5.20
2022-11-28T06:51:19.117Z,5.20
2022-11-28T06:53:46.027Z,5.20
2022-11-28T06:56:15.759Z,5.20
2022-11-28T06:58:44.200Z,5.10
2022-11-28T07:01:16.358Z,5.10
2022-11-28T07:03:44.257Z,5.20
2022-11-28T07:06:12.592Z,5.20
2022-11-28T07:08:39.992Z,5.20
2022-11-28T07:11:11.650Z,5.20
2022-11-28T07:13:39.232Z,5.30
2022-11-28T07:16:07.019Z,5.30
2022-11-28T07:18:34.839Z,5.30
2022-11-28T07:21:01.906Z,5.30
2022-11-28T07:23:28.777Z,5.30
2022-11-28T07:26:00.483Z,5.30
2022-11-28T07:28:29.775Z,5.30
2022-11-28T07:31:18.629Z,5.40
2022-11-28T07:33:48.421Z,5.40
2022-11-28T07:36:20.984Z,5.40
2022-11-28T07:38:49.511Z,5.30
2022-11-28T07:41:16.997Z,5.40
2022-11-28T07:43:45.902Z,5.40
2022-11-28T07:46:15.994Z,5.50
2022-11-28T07:48:43.601Z,5.40
2022-11-28T07:51:19.223Z,5.40
2022-11-28T07:53:46.593Z,5.30
2022-11-28T07:56:17.642Z,5.40
2022-11-28T07:58:46.642Z,5.40
2022-11-28T08:01:16.388Z,5.40
2022-11-28T08:03:47.132Z,5.50
2022-11-28T08:06:16.728Z,5.60
2022-11-28T08:08:45.567Z,5.80
2022-11-28T08:11:12.904Z,5.90
2022-11-28T08:13:40.631Z,5.90
2022-11-28T08:16:13.078Z,5.90
2022-11-28T08:18:40.882Z,6.00
2022-11-28T08:21:15.088Z,6.00
2022-11-28T08:23:42.886Z,6.00
2022-11-28T08:26:13.551Z,6.00
2022-11-28T08:28:40.978Z,6.00
2022-11-28T08:31:12.289Z,6.00
2022-11-28T08:33:39.751Z,5.90
2022-11-28T08:36:11.469Z,5.80
2022-11-28T08:38:38.746Z,5.80
2022-11-28T08:41:07.974Z,5.80
2022-11-28T08:43:36.885Z,5.80
2022-11-28T08:46:11.405Z,5.80
2022-11-28T08:48:39.160Z,5.80
2022-11-28T08:51:07.589Z,5.80
2022-11-28T08:53:34.406Z,5.80
2022-11-28T08:56:01.314Z,5.90
2022-11-28T08:58:28.112Z,5.80
2022-11-28T09:00:55.055Z,5.90
2022-11-28T09:03:22.050Z,5.80
2022-11-28T09:05:49.248Z,5.80
2022-11-28T09:08:18.571Z,5.90
2022-11-28T09:10:46.149Z,5.90
2022-11-28T09:13:14.952Z,6.00
2022-11-28T09:15:42.971Z,5.90
2022-11-28T09:18:10.119Z,5.80
2022-11-28T09:20:37.038Z,5.90
2022-11-28T09:23:03.867Z,6.00
2022-11-28T09:25:30.655Z,6.10
2022-11-28T09:27:57.584Z,6.10
2022-11-28T09:30:25.946Z,5.80
2022-11-28T09:32:52.827Z,5.80
2022-11-28T09:35:19.693Z,5.80
2022-11-28T09:37:46.545Z,5.90
2022-11-28T09:40:29.031Z,5.90
2022-11-28T09:42:59.296Z,5.90
2022-11-28T09:45:26.815Z,5.90
2022-11-28T09:48:02.024Z,5.90
2022-11-28T09:50:34.623Z,5.90
2022-11-28T09:53:09.469Z,5.90
2022-11-28T09:56:09.287Z,5.90
2022-11-28T09:58:41.132Z,5.80
2022-11-28T10:01:10.816Z,5.80
2022-11-28T10:04:01.641Z,5.80
2022-11-28T10:06:58.345Z,5.80
2022-11-28T10:09:58.908Z,5.80
2022-11-28T10:13:02.558Z,5.80
2022-11-28T10:15:32.418Z,5.80
2022-11-28T10:18:06.114Z,5.80
2022-11-28T10:20:37.959Z,5.80
2022-11-28T10:23:22.017Z,5.70
2022-11-28T10:26:22.051Z,5.80
2022-11-28T10:28:53.754Z,5.70
2022-11-28T10:31:30.241Z,5.80
2022-11-28T10:34:19.749Z,5.80
2022-11-28T10:36:46.561Z,5.70
2022-11-28T10:39:13.638Z,5.70
2022-11-28T10:42:11.721Z,5.70
2022-11-28T10:44:44.763Z,5.80
2022-11-28T10:47:20.832Z,5.90
2022-11-28T10:50:06.719Z,5.90
2022-11-28T10:52:44.990Z,5.90
2022-11-28T10:55:22.650Z,5.90
2022-11-28T10:58:02.640Z,5.80
2022-11-28T11:00:29.771Z,5.80
2022-11-28T11:03:00.417Z,5.80
2022-11-28T11:05:33.001Z,5.70
2022-11-28T11:08:03.330Z,5.80
2022-11-28T11:10:35.571Z,5.80
2022-11-28T11:13:25.888Z,5.80
2022-11-28T11:16:00.675Z,5.80
2022-11-28T11:18:36.673Z,5.80
2022-11-28T11:21:23.570Z,5.90
2022-11-28T11:24:19.456Z,6.00
2022-11-28T11:26:49.769Z,6.10
2022-11-28T11:29:30.573Z,6.10
2022-11-28T11:32:03.610Z,6.20
2022-11-28T11:34:37.452Z,6.40
2022-11-28T11:37:31.533Z,6.30
2022-11-28T11:39:59.536Z,6.30
2022-11-28T11:42:31.668Z,6.30
2022-11-28T11:45:24.841Z,6.30
2022-11-28T11:47:51.941Z,6.20
2022-11-28T11:50:21.631Z,6.20
2022-11-28T11:53:04.754Z,6.20
2022-11-28T11:55:37.613Z,6.10
2022-11-28T11:58:06.245Z,6.10
2022-11-28T12:00:43.594Z,6.10
2022-11-28T12:03:21.297Z,6.00
2022-11-28T12:06:13.760Z,6.10
2022-11-28T12:09:00.184Z,6.20
2022-11-28T12:11:32.046Z,6.10
2022-11-28T12:14:09.941Z,6.10
2022-11-28T12:17:40.481Z,6.10
2022-11-28T12:20:29.020Z,6.10
2022-11-28T12:23:04.859Z,6.20
2022-11-28T12:26:03.290Z,6.20
2022-11-28T12:28:51.446Z,6.20
2022-11-28T12:31:55.509Z,6.30
2022-11-28T12:34:22.763Z,6.20
2022-11-28T12:37:03.151Z,6.20
2022-11-28T12:40:14.672Z,6.10
2022-11-28T12:43:00.169Z,6.10
2022-11-28T12:45:29.754Z,6.10
2022-11-28T12:48:14.646Z,6.10
2022-11-28T12:50:59.370Z,6.10
2022-11-28T12:53:35.314Z,6.10
2022-11-28T12:56:14.202Z,6.10
2022-11-28T12:58:47.491Z,6.00
2022-11-28T13:01:26.521Z,6.00
2022-11-28T13:04:01.798Z,6.00
2022-11-28T13:06:52.130Z,6.00
2022-11-28T13:09:33.354Z,5.90
2022-11-28T13:12:26.542Z,5.80
2022-11-28T13:15:08.849Z,5.80
2022-11-28T13:18:04.592Z,5.80
2022-11-28T13:20:46.015Z,5.80
2022-11-28T13:23:35.234Z,5.80
2022-11-28T13:26:26.996Z,5.80
2022-11-28T13:29:10.036Z,5.70
2022-11-28T13:32:17.112Z,5.70
2022-11-28T13:34:45.089Z,5.60
2022-11-28T13:40:13.605Z,5.60
2022-11-28T13:43:07.549Z,5.50
2022-11-28T13:49:12.739Z,5.40
2022-11-28T13:51:33.261Z,5.40
2022-11-28T13:54:21.643Z,5.30
2022-11-28T13:57:29.039Z,5.30
2022-11-28T14:00:19.566Z,5.30
2022-11-28T14:02:53.015Z,5.30
2022-11-28T14:05:35.943Z,5.20
2022-11-28T14:08:04.553Z,5.20
2022-11-28T14:10:49.150Z,5.20
2022-11-28T14:13:15.917Z,5.10
2022-11-28T14:15:56.855Z,5.10
2022-11-28T14:18:57.527Z,5.10
2022-11-28T14:21:53.010Z,5.00
2022-11-28T14:24:38.253Z,5.00
2022-11-28T14:27:06.980Z,4.90
2022-11-28T14:29:41.085Z,4.90
2022-11-28T14:32:30.027Z,4.90
2022-11-28T14:34:57.800Z,4.80
2022-11-28T14:37:28.685Z,4.80
2022-11-28T14:39:57.054Z,4.80
2022-11-28T14:45:40.036Z,4.60
2022-11-28T14:48:28.756Z,4.60
2022-11-28T14:51:01.242Z,4.60
2022-11-28T14:53:44.546Z,4.60
2022-11-28T14:56:28.919Z,4.50
2022-11-28T14:58:58.891Z,4.50
2022-11-28T15:01:50.299Z,4.40
2022-11-28T15:04:31.901Z,4.40
2022-11-28T15:07:01.547Z,4.40
2022-11-28T15:09:42.894Z,4.30
2022-11-28T15:12:17.795Z,4.30
2022-11-28T15:14:51.206Z,4.30
2022-11-28T15:17:28.553Z,4.20
2022-11-28T15:19:57.018Z,4.20
2022-11-28T15:22:43.615Z,4.20
2022-11-28T15:25:22.371Z,4.20
2022-11-28T15:27:49.948Z,4.10
2022-11-28T15:30:27.520Z,4.10
2022-11-28T15:33:00.355Z,4.00
2022-11-28T15:35:28.576Z,4.10
2022-11-28T15:37:58.140Z,4.10
2022-11-28T15:40:31.187Z,4.10
2022-11-28T15:42:59.791Z,4.00
2022-11-28T15:45:35.334Z,4.00
2022-11-28T15:48:02.310Z,3.90
2022-11-28T15:50:32.163Z,3.90
2022-11-28T15:53:16.596Z,3.90
2022-11-28T15:55:44.081Z,3.90
2022-11-28T15:58:25.605Z,3.90
2022-11-28T16:01:01.342Z,3.80
2022-11-28T16:03:32.139Z,3.70
2022-11-28T16:06:00.416Z,3.70
2022-11-28T16:08:30.887Z,3.70
2022-11-28T16:11:00.029Z,3.60
2022-11-28T16:13:28.884Z,3.60
2022-11-28T16:15:57.874Z,3.60
2022-11-28T16:18:27.627Z,3.50
2022-11-28T16:20:58.051Z,3.50
2022-11-28T16:23:33.396Z,3.50
2022-11-28T16:26:04.950Z,3.60
2022-11-28T16:28:37.757Z,3.40
2022-11-28T16:31:13.532Z,3.40
2022-11-28T16:33:42.050Z,3.30
2022-11-28T16:36:20.834Z,3.20
2022-11-28T16:38:49.088Z,3.20
2022-11-28T16:41:23.941Z,3.10
2022-11-28T16:43:56.419Z,3.10
2022-11-28T16:46:26.949Z,3.10
2022-11-28T16:48:57.420Z,3.00
2022-11-28T16:51:29.056Z,3.00
2022-11-28T16:53:59.732Z,3.00
2022-11-28T16:56:30.827Z,3.00
2022-11-28T16:59:16.997Z,2.90
2022-11-28T17:01:46.496Z,3.00
2022-11-28T17:04:27.500Z,3.00
2022-11-28T17:06:57.342Z,3.00
2022-11-28T17:09:25.024Z,3.00
2022-11-28T17:12:17.932Z,3.00
2022-11-28T17:14:45.136Z,3.00
2022-11-28T17:17:17.432Z,3.00
2022-11-28T17:19:45.334Z,3.00
2022-11-28T17:22:16.571Z,3.00
2022-11-28T17:24:44.866Z,2.90
2022-11-28T17:27:14.023Z,2.80
2022-11-28T17:29:41.444Z,2.80
2022-11-28T17:32:13.863Z,2.80
2022-11-28T17:34:46.844Z,2.70
2022-11-28T17:37:14.571Z,2.70
2022-11-28T17:40:01.424Z,2.60
2022-11-28T17:42:28.678Z,2.60
2022-11-28T17:44:56.330Z,2.60
2022-11-28T17:47:24.458Z,2.60
2022-11-28T17:49:52.327Z,2.60
2022-11-28T17:52:20.923Z,2.60
2022-11-28T17:54:47.886Z,2.60
2022-11-28T17:57:15.032Z,2.60
2022-11-28T17:59:42.587Z,2.60
2022-11-28T18:02:11.638Z,2.60
2022-11-28T18:04:39.010Z,2.60
2022-11-28T18:07:06.291Z,2.60
2022-11-28T18:09:34.058Z,2.60
2022-11-28T18:12:01.309Z,2.70
2022-11-28T18:14:28.526Z,2.50
2022-11-28T18:16:55.913Z,2.40
2022-11-28T18:19:23.260Z,2.40
2022-11-28T18:21:50.788Z,2.50
2022-11-28T18:24:18.113Z,2.40
2022-11-28T18:26:46.147Z,2.40
2022-11-28T18:29:13.468Z,2.40
2022-11-28T18:31:40.830Z,2.50
2022-11-28T18:34:09.920Z,2.50
2022-11-28T18:36:39.128Z,2.40
2022-11-28T18:39:09.433Z,2.40
2022-11-28T18:41:36.933Z,2.40
2022-11-28T18:44:05.798Z,2.30
2022-11-28T18:46:34.133Z,2.30
2022-11-28T18:49:02.013Z,2.30
2022-11-28T18:51:34.391Z,2.30
2022-11-28T18:54:05.241Z,2.30
2022-11-28T18:56:33.261Z,2.30
2022-11-28T18:59:04.732Z,2.30
2022-11-28T19:01:34.584Z,2.30
2022-11-28T19:04:05.747Z,2.30
2022-11-28T19:06:35.247Z,2.30
2022-11-28T19:09:05.042Z,2.30
2022-11-28T19:11:33.823Z,2.20
2022-11-28T19:14:01.794Z,2.20
2022-11-28T19:16:31.669Z,2.20
2022-11-28T19:18:59.632Z,2.20
2022-11-28T19:21:29.572Z,2.20
2022-11-28T19:23:57.431Z,2.20
2022-11-28T19:26:27.862Z,2.30
2022-11-28T19:28:56.573Z,2.20
2022-11-28T19:31:31.486Z,2.30
2022-11-28T19:34:06.157Z,2.30
2022-11-28T19:36:42.167Z,2.30
2022-11-28T19:39:18.059Z,2.30
2022-11-28T19:41:46.777Z,2.30
2022-11-28T19:44:15.000Z,2.30
2022-11-28T19:46:42.622Z,2.30
2022-11-28T19:49:18.610Z,2.30
2022-11-28T19:51:47.416Z,2.30
2022-11-28T19:54:16.572Z,2.30
2022-11-28T19:56:45.108Z,2.40
2022-11-28T19:59:13.183Z,2.30
2022-11-28T20:01:40.308Z,2.30
2022-11-28T20:04:07.882Z,2.30
2022-11-28T20:06:35.470Z,2.30
2022-11-28T20:09:06.754Z,2.30
2022-11-28T20:11:36.031Z,2.30
2022-11-28T20:14:14.931Z,2.30
2022-11-28T20:16:43.390Z,2.30
2022-11-28T20:19:13.497Z,2.30
2022-11-28T20:21:41.136Z,2.30
2022-11-28T20:24:08.850Z,2.30
2022-11-28T20:26:38.973Z,2.30
2022-11-28T20:29:07.633Z,2.30
2022-11-28T20:31:37.428Z,2.30
2022-11-28T20:34:05.889Z,2.30
2022-11-28T20:36:33.426Z,2.20
2022-11-28T20:39:00.813Z,2.30
2022-11-28T20:41:29.451Z,2.20
2022-11-28T20:43:57.486Z,2.20
2022-11-28T20:46:35.751Z,2.30
2022-11-28T20:49:06.782Z,2.20
2022-11-28T20:51:35.657Z,2.20
2022-11-28T20:54:04.947Z,2.20
2022-11-28T20:56:51.639Z,2.20
2022-11-28T20:59:22.518Z,2.10
2022-11-28T21:01:49.929Z,2.10
2022-11-28T21:04:18.691Z,2.10
2022-11-28T21:06:47.713Z,2.20
2022-11-28T21:09:15.949Z,2.20
2022-11-28T21:11:56.740Z,2.20
2022-11-28T21:14:24.912Z,2.10
2022-11-28T21:16:52.252Z,2.20
2022-11-28T21:19:19.230Z,2.20
2022-11-28T21:21:46.446Z,2.20
2022-11-28T21:24:14.337Z,2.30
2022-11-28T21:26:46.621Z,2.30
2022-11-28T21:29:16.849Z,2.40
2022-11-28T21:31:45.374Z,2.40
2022-11-28T21:34:16.897Z,2.40
2022-11-28T21:36:44.383Z,2.40
2022-11-28T21:39:16.166Z,2.30
2022-11-28T21:41:43.433Z,2.40
2022-11-28T21:44:10.434Z,2.40
2022-11-28T21:46:37.332Z,2.40
2022-11-28T21:49:04.290Z,2.40
2022-11-28T21:51:31.090Z,2.30
2022-11-28T21:53:58.518Z,2.30
2022-11-28T21:56:25.662Z,2.40
2022-11-28T21:58:52.652Z,2.40
2022-11-28T22:01:21.277Z,2.40
2022-11-28T22:03:48.804Z,2.40
2022-11-28T22:06:24.197Z,2.40
2022-11-28T22:08:51.969Z,2.50
2022-11-28T22:11:21.216Z,2.50
2022-11-28T22:13:49.088Z,2.50
2022-11-28T22:16:20.942Z,2.50
2022-11-28T22:18:49.136Z,2.60
2022-11-28T22:24:03.581Z,2.60
2022-11-28T22:26:30.468Z,2.60
2022-11-28T22:28:58.889Z,2.50
2022-11-28T22:31:25.973Z,2.50
2022-11-28T22:33:53.401Z,2.50
2022-11-28T22:36:21.390Z,2.50
2022-11-28T22:38:50.076Z,2.50
2022-11-28T22:41:26.212Z,2.50
2022-11-28T22:43:57.376Z,2.50
2022-11-28T22:46:24.277Z,2.50
2022-11-28T22:48:53.420Z,2.60
2022-11-28T22:51:23.205Z,2.60
2022-11-28T22:53:54.712Z,2.60
2022-11-28T22:56:22.064Z,2.70
2022-11-28T22:58:49.372Z,2.60
2022-11-28T23:01:27.012Z,2.50
2022-11-28T23:03:54.725Z,2.60
2022-11-28T23:06:29.176Z,2.50
2022-11-28T23:08:57.832Z,2.50
2022-11-28T23:11:26.960Z,2.60
2022-11-28T23:13:54.046Z,2.60
2022-11-28T23:16:23.992Z,2.80
2022-11-28T23:18:53.983Z,2.60
2022-11-28T23:21:22.518Z,2.80
2022-11-28T23:23:49.962Z,2.70
2022-11-28T23:26:20.303Z,2.70
2022-11-28T23:28:47.288Z,2.70
2022-11-28T23:31:25.255Z,2.70
2022-11-28T23:33:52.739Z,2.70
2022-11-28T23:36:41.820Z,2.70
2022-11-28T23:39:15.317Z,2.70
2022-11-28T23:41:42.716Z,2.70
2022-11-28T23:44:11.308Z,2.70
2022-11-28T23:46:38.563Z,2.80
2022-11-28T23:49:06.310Z,2.90
2022-11-28T23:51:33.678Z,2.90
2022-11-28T23:54:00.782Z,2.80
2022-11-28T23:56:30.939Z,2.80
2022-11-28T23:59:01.068Z,2.80
